North Myrtle Beach, SC

6:50 PM EST on January 22, 2017 (GMT -0500)
ME1271 | | Change Station
Active Advisory: Small Craft Advisory

Elev 9 ft 33.83 °N, 78.67 °W | Updated 36 minutes ago

Overcast
Overcast
60.0 °F
Feels Like 60.0 °F
N
8.0
Wind Variable Wind from ESE
Gusts 11.0 mph

Today
High -- | Low -- °F
--% Chance of Precip.
Yesterday
High -- | Low -- °F
Precip. -- in
Pressure 29.46 in
Visibility 10.0 miles
Clouds Few 7500 ft
Overcast 11000 ft
Dew Point 59 °F
Humidity 97%
Rainfall in
Snow Depth Not available.
7:17 AM 5:36 PM
Waning Crescent, 23% visible
METAR KCRE 222253Z 08004KT 10SM FEW075 OVC110 16/15 A2945 RMK AO1 RAB13E26 SLP975 P0000 T01560150
Pressure 29.46 in
Visibility 10.0 miles
Clouds Few 7500 ft
Overcast 11000 ft
Dew Point 59 °F
Humidity 97%
Rainfall in
Snow Depth Not available.
7:17 AM 5:36 PM
Waning Crescent, 23% visible
METAR KCRE 222253Z 08004KT 10SM FEW075 OVC110 16/15 A2945 RMK AO1 RAB13E26 SLP975 P0000 T01560150

Get Your Daily Forecast Email!

Thanks for signing up!

Be on the lookout for a verification email in your inbox.

You'll start receiving the daily forecast at 8 AM.

×

10-Day Weather Forecast

Almanac

Astronomy

Jan. 22, 2017 Rise Set
Actual Time
Civil Twilight
Nautical Twilight
Astronomical Twilight
Moon
Length of Visible Light
Length of Day
Tomorrow will be .
, % of the Moon is Illuminated

Today's Extremes

State Highs State Lows

Community

WunderPhotos

Upload Photos

1,962,540 photos uploaded!

WunderBlog® & News

Nearby

Air Quality

  Air Quality AQ Index Pollutant
Not available.

Snow Depth

Station Depth Elevation

Earthquake Activity

City Distance Mag. Time & Date
Minimum magnitude displayed is 2.5.

Coastal Water Temperatures

Place Temperature

Stations

Nearby Weather Stations

Station Location Temp. Windchill Dew Point Humidity Wind Precip. Elev Updated Type
                   

Watches & Warnings

Small Craft Advisory
Issued: 2:28 PM EST Jan. 22, 2017 – National Weather Service

... Small Craft Advisory remains in effect until 6 PM EST
Tuesday...

* winds and timing... south to southwest winds increasing to 20
to 25 kt with gusts up to 30 kt through this evening. Winds
will become southwest to west at 20 to 30 kt with few gusts up
to gale force late tonight thru Monday night.

* Seas and timing... seas will build to 6 to 9 ft tonight. Seas
will drop back to 4 to 8 feet during Monday into Monday night.
Wind driven waves at 4 to 7 second periods will dominate.

Precautionary/preparedness actions...

A Small Craft Advisory means that wind speeds of 25 to 33 knots
and or sea of 6 ft or greater are expected to produce hazardous
wave conditions to small craft. Inexperienced mariners,
especially those operating smaller vessels should avoid
navigating in these conditions.



8